sensor_id;sensor_type;location;lat;lon;timestamp;temperature;humidity
3005;DHT22;1512;51.486;6.610;2022-11-20T00:00:24;1.30;99.90
3005;DHT22;1512;51.486;6.610;2022-11-20T00:04:52;1.20;99.90
3005;DHT22;1512;51.486;6.610;2022-11-20T00:09:20;1.10;99.90
3005;DHT22;1512;51.486;6.610;2022-11-20T00:13:29;1.00;99.90
3005;DHT22;1512;51.486;6.610;2022-11-20T00:17:38;0.80;99.90
3005;DHT22;1512;51.486;6.610;2022-11-20T00:21:47;0.50;99.90
3005;DHT22;1512;51.486;6.610;2022-11-20T00:26:03;0.40;99.90
3005;DHT22;1512;51.486;6.610;2022-11-20T00:30:11;0.30;99.90
3005;DHT22;1512;51.486;6.610;2022-11-20T00:34:21;0.30;99.90
3005;DHT22;1512;51.486;6.610;2022-11-20T00:38:31;0.40;99.90
3005;DHT22;1512;51.486;6.610;2022-11-20T00:42:41;0.50;99.90
3005;DHT22;1512;51.486;6.610;2022-11-20T00:46:49;0.50;99.90
3005;DHT22;1512;51.486;6.610;2022-11-20T00:50:58;0.40;99.90
3005;DHT22;1512;51.486;6.610;2022-11-20T00:55:07;0.50;99.90
3005;DHT22;1512;51.486;6.610;2022-11-20T00:59:35;0.60;99.90
3005;DHT22;1512;51.486;6.610;2022-11-20T01:04:03;0.70;99.90
3005;DHT22;1512;51.486;6.610;2022-11-20T01:08:12;0.70;99.90
3005;DHT22;1512;51.486;6.610;2022-11-20T01:12:22;0.70;99.90
3005;DHT22;1512;51.486;6.610;2022-11-20T01:16:36;0.70;99.90
3005;DHT22;1512;51.486;6.610;2022-11-20T01:20:45;0.70;99.90
3005;DHT22;1512;51.486;6.610;2022-11-20T01:24:53;0.70;99.90
3005;DHT22;1512;51.486;6.610;2022-11-20T01:29:03;0.70;99.90
3005;DHT22;1512;51.486;6.610;2022-11-20T01:33:31;0.70;99.90
3005;DHT22;1512;51.486;6.610;2022-11-20T01:37:40;0.80;99.90
3005;DHT22;1512;51.486;6.610;2022-11-20T01:41:50;0.70;99.90
3005;DHT22;1512;51.486;6.610;2022-11-20T01:46:18;0.70;99.90
3005;DHT22;1512;51.486;6.610;2022-11-20T01:50:28;0.70;99.90
3005;DHT22;1512;51.486;6.610;2022-11-20T01:54:39;0.70;99.90
3005;DHT22;1512;51.486;6.610;2022-11-20T01:58:51;0.70;99.90
3005;DHT22;1512;51.486;6.610;2022-11-20T02:03:03;0.70;99.90
3005;DHT22;1512;51.486;6.610;2022-11-20T02:07:12;0.70;99.90
3005;DHT22;1512;51.486;6.610;2022-11-20T02:11:22;0.70;99.90
3005;DHT22;1512;51.486;6.610;2022-11-20T02:15:33;0.80;99.90
3005;DHT22;1512;51.486;6.610;2022-11-20T02:19:41;0.70;99.90
3005;DHT22;1512;51.486;6.610;2022-11-20T02:28:15;0.70;99.90
3005;DHT22;1512;51.486;6.610;2022-11-20T02:32:35;0.60;99.90
3005;DHT22;1512;51.486;6.610;2022-11-20T02:36:44;0.50;99.90
3005;DHT22;1512;51.486;6.610;2022-11-20T02:40:54;0.60;99.90
3005;DHT22;1512;51.486;6.610;2022-11-20T02:45:03;0.50;99.90
3005;DHT22;1512;51.486;6.610;2022-11-20T02:49:12;0.40;99.90
3005;DHT22;1512;51.486;6.610;2022-11-20T02:53:21;0.40;99.90
3005;DHT22;1512;51.486;6.610;2022-11-20T02:57:35;0.50;99.90
3005;DHT22;1512;51.486;6.610;2022-11-20T03:01:44;0.50;99.90
3005;DHT22;1512;51.486;6.610;2022-11-20T03:05:52;0.60;99.90
3005;DHT22;1512;51.486;6.610;2022-11-20T03:10:01;0.60;99.90
3005;DHT22;1512;51.486;6.610;2022-11-20T03:14:09;0.60;99.90
3005;DHT22;1512;51.486;6.610;2022-11-20T03:18:18;0.60;99.90
3005;DHT22;1512;51.486;6.610;2022-11-20T03:22:29;0.60;99.90
3005;DHT22;1512;51.486;6.610;2022-11-20T03:26:39;0.60;99.90
3005;DHT22;1512;51.486;6.610;2022-11-20T03:30:47;0.70;99.90
3005;DHT22;1512;51.486;6.610;2022-11-20T03:34:56;0.70;99.90
3005;DHT22;1512;51.486;6.610;2022-11-20T03:39:05;0.70;99.90
3005;DHT22;1512;51.486;6.610;2022-11-20T03:43:14;0.70;99.90
3005;DHT22;1512;51.486;6.610;2022-11-20T03:47:22;0.80;99.90
3005;DHT22;1512;51.486;6.610;2022-11-20T03:51:32;0.60;99.90
3005;DHT22;1512;51.486;6.610;2022-11-20T03:55:42;0.30;99.90
3005;DHT22;1512;51.486;6.610;2022-11-20T03:59:50;0.20;99.90
3005;DHT22;1512;51.486;6.610;2022-11-20T04:03:59;0.10;99.90
3005;DHT22;1512;51.486;6.610;2022-11-20T04:08:08;0.10;99.90
3005;DHT22;1512;51.486;6.610;2022-11-20T04:12:36;0.10;99.90
3005;DHT22;1512;51.486;6.610;2022-11-20T04:16:44;0.20;99.90
3005;DHT22;1512;51.486;6.610;2022-11-20T04:20:53;0.40;99.90
3005;DHT22;1512;51.486;6.610;2022-11-20T04:25:02;0.50;99.90
3005;DHT22;1512;51.486;6.610;2022-11-20T04:29:12;0.50;99.90
3005;DHT22;1512;51.486;6.610;2022-11-20T04:33:20;0.50;99.90
3005;DHT22;1512;51.486;6.610;2022-11-20T04:37:50;0.70;99.90
3005;DHT22;1512;51.486;6.610;2022-11-20T04:41:58;0.70;99.90
3005;DHT22;1512;51.486;6.610;2022-11-20T04:46:44;0.70;99.90
3005;DHT22;1512;51.486;6.610;2022-11-20T04:50:53;0.70;99.90
3005;DHT22;1512;51.486;6.610;2022-11-20T04:55:02;0.80;99.90
3005;DHT22;1512;51.486;6.610;2022-11-20T05:03:33;0.90;99.90
3005;DHT22;1512;51.486;6.610;2022-11-20T05:07:43;0.80;99.90
3005;DHT22;1512;51.486;6.610;2022-11-20T05:11:52;0.90;99.90
3005;DHT22;1512;51.486;6.610;2022-11-20T05:16:06;1.00;99.90
3005;DHT22;1512;51.486;6.610;2022-11-20T05:20:16;1.00;99.90
3005;DHT22;1512;51.486;6.610;2022-11-20T05:24:25;1.00;99.90
3005;DHT22;1512;51.486;6.610;2022-11-20T05:28:34;1.00;99.90
3005;DHT22;1512;51.486;6.610;2022-11-20T05:32:43;1.00;99.90
3005;DHT22;1512;51.486;6.610;2022-11-20T05:36:51;1.00;99.90
3005;DHT22;1512;51.486;6.610;2022-11-20T05:41:07;1.10;99.90
3005;DHT22;1512;51.486;6.610;2022-11-20T05:45:16;1.20;99.90
3005;DHT22;1512;51.486;6.610;2022-11-20T05:49:25;1.20;99.90
3005;DHT22;1512;51.486;6.610;2022-11-20T05:53:34;1.30;99.90
3005;DHT22;1512;51.486;6.610;2022-11-20T05:57:43;1.30;99.90
3005;DHT22;1512;51.486;6.610;2022-11-20T06:01:52;1.40;99.90
3005;DHT22;1512;51.486;6.610;2022-11-20T06:06:02;1.40;99.90
3005;DHT22;1512;51.486;6.610;2022-11-20T06:10:11;1.50;99.90
3005;DHT22;1512;51.486;6.610;2022-11-20T06:14:19;1.50;99.90
3005;DHT22;1512;51.486;6.610;2022-11-20T06:18:29;1.50;99.90
3005;DHT22;1512;51.486;6.610;2022-11-20T06:22:37;1.50;99.90
3005;DHT22;1512;51.486;6.610;2022-11-20T06:27:05;1.50;99.90
3005;DHT22;1512;51.486;6.610;2022-11-20T06:31:16;1.50;99.90
3005;DHT22;1512;51.486;6.610;2022-11-20T06:35:25;1.40;99.90
3005;DHT22;1512;51.486;6.610;2022-11-20T06:39:33;1.50;99.90
3005;DHT22;1512;51.486;6.610;2022-11-20T06:43:42;1.50;99.90
3005;DHT22;1512;51.486;6.610;2022-11-20T06:47:51;1.50;99.90
3005;DHT22;1512;51.486;6.610;2022-11-20T06:52:00;1.40;99.90
3005;DHT22;1512;51.486;6.610;2022-11-20T06:56:28;1.40;99.90
3005;DHT22;1512;51.486;6.610;2022-11-20T07:00:36;1.50;99.90
3005;DHT22;1512;51.486;6.610;2022-11-20T07:04:45;1.50;99.90
3005;DHT22;1512;51.486;6.610;2022-11-20T07:08:54;1.50;99.90
3005;DHT22;1512;51.486;6.610;2022-11-20T07:13:03;1.50;99.90
3005;DHT22;1512;51.486;6.610;2022-11-20T07:17:12;1.50;99.90
3005;DHT22;1512;51.486;6.610;2022-11-20T07:21:21;1.50;99.90
3005;DHT22;1512;51.486;6.610;2022-11-20T07:25:29;1.50;99.90
3005;DHT22;1512;51.486;6.610;2022-11-20T07:29:38;1.40;99.90
3005;DHT22;1512;51.486;6.610;2022-11-20T07:33:47;1.30;99.90
3005;DHT22;1512;51.486;6.610;2022-11-20T07:37:56;1.30;99.90
3005;DHT22;1512;51.486;6.610;2022-11-20T07:42:06;1.40;99.90
3005;DHT22;1512;51.486;6.610;2022-11-20T07:46:15;1.40;99.90
3005;DHT22;1512;51.486;6.610;2022-11-20T07:50:24;1.50;99.90
3005;DHT22;1512;51.486;6.610;2022-11-20T07:54:33;1.40;99.90
3005;DHT22;1512;51.486;6.610;2022-11-20T07:58:41;1.40;99.90
3005;DHT22;1512;51.486;6.610;2022-11-20T08:02:50;1.40;99.90
3005;DHT22;1512;51.486;6.610;2022-11-20T08:06:58;1.50;99.90
3005;DHT22;1512;51.486;6.610;2022-11-20T08:11:07;1.50;99.90
3005;DHT22;1512;51.486;6.610;2022-11-20T08:15:35;1.50;99.90
3005;DHT22;1512;51.486;6.610;2022-11-20T08:19:43;1.50;99.90
3005;DHT22;1512;51.486;6.610;2022-11-20T08:23:52;1.60;99.90
3005;DHT22;1512;51.486;6.610;2022-11-20T08:28:09;1.60;99.90
3005;DHT22;1512;51.486;6.610;2022-11-20T08:32:19;1.60;99.90
3005;DHT22;1512;51.486;6.610;2022-11-20T08:36:47;1.70;99.90
3005;DHT22;1512;51.486;6.610;2022-11-20T08:45:35;1.80;99.90
3005;DHT22;1512;51.486;6.610;2022-11-20T08:49:44;1.90;99.90
3005;DHT22;1512;51.486;6.610;2022-11-20T08:53:52;2.00;99.90
3005;DHT22;1512;51.486;6.610;2022-11-20T08:58:05;1.90;99.90
3005;DHT22;1512;51.486;6.610;2022-11-20T09:02:13;2.00;99.90
3005;DHT22;1512;51.486;6.610;2022-11-20T09:06:22;2.00;99.90
3005;DHT22;1512;51.486;6.610;2022-11-20T09:10:31;2.10;99.90
3005;DHT22;1512;51.486;6.610;2022-11-20T09:14:40;2.10;99.90
3005;DHT22;1512;51.486;6.610;2022-11-20T09:18:50;2.20;99.90
3005;DHT22;1512;51.486;6.610;2022-11-20T09:23:00;2.20;99.90
3005;DHT22;1512;51.486;6.610;2022-11-20T09:27:08;2.20;99.90
3005;DHT22;1512;51.486;6.610;2022-11-20T09:31:22;2.30;99.90
3005;DHT22;1512;51.486;6.610;2022-11-20T09:35:31;2.30;99.90
3005;DHT22;1512;51.486;6.610;2022-11-20T09:39:40;2.30;99.90
3005;DHT22;1512;51.486;6.610;2022-11-20T09:44:20;2.40;99.90
3005;DHT22;1512;51.486;6.610;2022-11-20T09:57:19;2.50;99.90
3005;DHT22;1512;51.486;6.610;2022-11-20T10:01:30;2.60;99.90
3005;DHT22;1512;51.486;6.610;2022-11-20T10:05:49;2.70;99.90
3005;DHT22;1512;51.486;6.610;2022-11-20T10:09:58;2.80;99.90
3005;DHT22;1512;51.486;6.610;2022-11-20T10:14:34;2.90;99.90
3005;DHT22;1512;51.486;6.610;2022-11-20T10:28:10;3.30;99.90
3005;DHT22;1512;51.486;6.610;2022-11-20T10:32:20;3.40;99.90
3005;DHT22;1512;51.486;6.610;2022-11-20T10:36:33;3.50;99.90
3005;DHT22;1512;51.486;6.610;2022-11-20T10:40:47;3.60;99.90
3005;DHT22;1512;51.486;6.610;2022-11-20T10:44:57;3.70;99.90
3005;DHT22;1512;51.486;6.610;2022-11-20T10:49:14;3.80;99.90
3005;DHT22;1512;51.486;6.610;2022-11-20T10:58:03;3.90;99.90
3005;DHT22;1512;51.486;6.610;2022-11-20T11:02:20;4.00;99.90
3005;DHT22;1512;51.486;6.610;2022-11-20T11:06:48;4.10;99.90
3005;DHT22;1512;51.486;6.610;2022-11-20T11:11:10;4.20;99.90
3005;DHT22;1512;51.486;6.610;2022-11-20T11:15:38;4.20;99.90
3005;DHT22;1512;51.486;6.610;2022-11-20T11:20:01;4.20;99.90
3005;DHT22;1512;51.486;6.610;2022-11-20T11:24:25;4.20;99.90
3005;DHT22;1512;51.486;6.610;2022-11-20T11:28:35;4.20;99.90
3005;DHT22;1512;51.486;6.610;2022-11-20T11:32:45;4.30;99.90
3005;DHT22;1512;51.486;6.610;2022-11-20T11:41:23;4.30;99.90
3005;DHT22;1512;51.486;6.610;2022-11-20T11:45:52;4.30;99.90
3005;DHT22;1512;51.486;6.610;2022-11-20T11:50:21;4.30;99.90
3005;DHT22;1512;51.486;6.610;2022-11-20T11:54:55;4.30;99.90
3005;DHT22;1512;51.486;6.610;2022-11-20T11:59:09;4.30;99.90
3005;DHT22;1512;51.486;6.610;2022-11-20T12:03:24;4.30;99.90
3005;DHT22;1512;51.486;6.610;2022-11-20T12:07:46;4.40;99.90
3005;DHT22;1512;51.486;6.610;2022-11-20T12:12:17;4.40;99.90
3005;DHT22;1512;51.486;6.610;2022-11-20T12:16:25;4.40;99.90
3005;DHT22;1512;51.486;6.610;2022-11-20T12:21:10;4.50;99.90
3005;DHT22;1512;51.486;6.610;2022-11-20T12:25:33;4.50;99.90
3005;DHT22;1512;51.486;6.610;2022-11-20T12:30:01;4.60;99.90
3005;DHT22;1512;51.486;6.610;2022-11-20T12:34:31;4.70;99.90
3005;DHT22;1512;51.486;6.610;2022-11-20T12:57:40;4.80;99.90
3005;DHT22;1512;51.486;6.610;2022-11-20T13:02:11;4.80;99.90
3005;DHT22;1512;51.486;6.610;2022-11-20T13:06:17;4.80;99.90
3005;DHT22;1512;51.486;6.610;2022-11-20T13:19:03;4.80;99.90
3005;DHT22;1512;51.486;6.610;2022-11-20T13:23:22;4.80;99.90
3005;DHT22;1512;51.486;6.610;2022-11-20T13:27:23;4.80;99.90
3005;DHT22;1512;51.486;6.610;2022-11-20T13:31:34;4.90;99.90
3005;DHT22;1512;51.486;6.610;2022-11-20T13:35:54;4.80;99.90
3005;DHT22;1512;51.486;6.610;2022-11-20T13:40:13;4.80;99.90
3005;DHT22;1512;51.486;6.610;2022-11-20T13:44:45;4.80;99.90
3005;DHT22;1512;51.486;6.610;2022-11-20T13:48:57;4.80;99.90
3005;DHT22;1512;51.486;6.610;2022-11-20T13:57:57;4.70;99.90
3005;DHT22;1512;51.486;6.610;2022-11-20T14:02:13;4.70;99.90
3005;DHT22;1512;51.486;6.610;2022-11-20T14:06:26;4.70;99.90
3005;DHT22;1512;51.486;6.610;2022-11-20T14:10:36;4.70;99.90
3005;DHT22;1512;51.486;6.610;2022-11-20T14:14:51;4.70;99.90
3005;DHT22;1512;51.486;6.610;2022-11-20T14:23:30;4.70;99.90
3005;DHT22;1512;51.486;6.610;2022-11-20T14:27:40;4.80;99.90
3005;DHT22;1512;51.486;6.610;2022-11-20T14:31:51;4.70;99.90
3005;DHT22;1512;51.486;6.610;2022-11-20T14:36:01;4.70;99.90
3005;DHT22;1512;51.486;6.610;2022-11-20T14:40:28;4.80;99.90
3005;DHT22;1512;51.486;6.610;2022-11-20T14:44:37;4.70;99.90
3005;DHT22;1512;51.486;6.610;2022-11-20T14:48:56;4.70;99.90
3005;DHT22;1512;51.486;6.610;2022-11-20T14:53:05;4.70;99.90
3005;DHT22;1512;51.486;6.610;2022-11-20T14:57:35;4.70;99.90
3005;DHT22;1512;51.486;6.610;2022-11-20T15:02:08;4.70;99.90
3005;DHT22;1512;51.486;6.610;2022-11-20T15:06:25;4.70;99.90
3005;DHT22;1512;51.486;6.610;2022-11-20T15:10:28;4.70;99.90
3005;DHT22;1512;51.486;6.610;2022-11-20T15:14:37;4.80;99.90
3005;DHT22;1512;51.486;6.610;2022-11-20T15:18:46;4.80;99.90
3005;DHT22;1512;51.486;6.610;2022-11-20T15:22:55;4.70;99.90
3005;DHT22;1512;51.486;6.610;2022-11-20T15:27:03;4.70;99.90
3005;DHT22;1512;51.486;6.610;2022-11-20T15:31:14;4.80;99.90
3005;DHT22;1512;51.486;6.610;2022-11-20T15:35:23;4.80;99.90
3005;DHT22;1512;51.486;6.610;2022-11-20T15:39:33;4.70;99.90
3005;DHT22;1512;51.486;6.610;2022-11-20T15:43:42;4.80;99.90
3005;DHT22;1512;51.486;6.610;2022-11-20T15:48:16;4.80;99.90
3005;DHT22;1512;51.486;6.610;2022-11-20T15:52:20;4.70;99.90
3005;DHT22;1512;51.486;6.610;2022-11-20T15:56:32;4.80;99.90
3005;DHT22;1512;51.486;6.610;2022-11-20T16:00:41;4.80;99.90
3005;DHT22;1512;51.486;6.610;2022-11-20T16:04:49;4.80;99.90
3005;DHT22;1512;51.486;6.610;2022-11-20T16:08:58;4.80;99.90
3005;DHT22;1512;51.486;6.610;2022-11-20T16:13:15;4.80;99.90
3005;DHT22;1512;51.486;6.610;2022-11-20T16:17:42;4.80;99.90
3005;DHT22;1512;51.486;6.610;2022-11-20T16:26:16;4.80;99.90
3005;DHT22;1512;51.486;6.610;2022-11-20T16:30:26;4.80;99.90
3005;DHT22;1512;51.486;6.610;2022-11-20T16:34:35;4.80;99.90
3005;DHT22;1512;51.486;6.610;2022-11-20T16:38:43;4.90;99.90
3005;DHT22;1512;51.486;6.610;2022-11-20T16:42:53;4.80;99.90
3005;DHT22;1512;51.486;6.610;2022-11-20T16:47:01;4.90;99.90
3005;DHT22;1512;51.486;6.610;2022-11-20T16:51:11;4.90;99.90
3005;DHT22;1512;51.486;6.610;2022-11-20T16:55:20;4.90;99.90
3005;DHT22;1512;51.486;6.610;2022-11-20T16:59:28;4.90;99.90
3005;DHT22;1512;51.486;6.610;2022-11-20T17:03:38;4.90;99.90
3005;DHT22;1512;51.486;6.610;2022-11-20T17:07:47;4.90;99.90
3005;DHT22;1512;51.486;6.610;2022-11-20T17:11:56;5.00;99.90
3005;DHT22;1512;51.486;6.610;2022-11-20T17:16:08;5.00;99.90
3005;DHT22;1512;51.486;6.610;2022-11-20T17:20:16;5.00;99.90
3005;DHT22;1512;51.486;6.610;2022-11-20T17:24:25;5.00;99.90
3005;DHT22;1512;51.486;6.610;2022-11-20T17:28:36;5.00;99.90
3005;DHT22;1512;51.486;6.610;2022-11-20T17:32:45;5.10;99.90
3005;DHT22;1512;51.486;6.610;2022-11-20T17:36:54;5.10;99.90
3005;DHT22;1512;51.486;6.610;2022-11-20T17:41:10;5.20;99.90
3005;DHT22;1512;51.486;6.610;2022-11-20T17:45:39;5.20;99.90
3005;DHT22;1512;51.486;6.610;2022-11-20T17:49:47;5.20;99.90
3005;DHT22;1512;51.486;6.610;2022-11-20T17:53:58;5.20;99.90
3005;DHT22;1512;51.486;6.610;2022-11-20T17:58:27;5.20;99.90
3005;DHT22;1512;51.486;6.610;2022-11-20T18:02:36;5.30;99.90
3005;DHT22;1512;51.486;6.610;2022-11-20T18:06:44;5.30;99.90
3005;DHT22;1512;51.486;6.610;2022-11-20T18:10:53;5.30;99.90
3005;DHT22;1512;51.486;6.610;2022-11-20T18:15:02;5.40;99.90
3005;DHT22;1512;51.486;6.610;2022-11-20T18:19:13;5.40;99.90
3005;DHT22;1512;51.486;6.610;2022-11-20T18:23:22;5.40;99.90
3005;DHT22;1512;51.486;6.610;2022-11-20T18:27:31;5.50;99.90
3005;DHT22;1512;51.486;6.610;2022-11-20T18:31:40;5.50;99.90
3005;DHT22;1512;51.486;6.610;2022-11-20T18:35:49;5.50;99.90
3005;DHT22;1512;51.486;6.610;2022-11-20T18:39:58;5.60;99.90
3005;DHT22;1512;51.486;6.610;2022-11-20T18:44:11;5.70;99.90
3005;DHT22;1512;51.486;6.610;2022-11-20T18:48:35;5.70;99.90
3005;DHT22;1512;51.486;6.610;2022-11-20T18:52:45;5.70;99.90
3005;DHT22;1512;51.486;6.610;2022-11-20T18:56:54;5.70;99.90
3005;DHT22;1512;51.486;6.610;2022-11-20T19:05:36;5.80;99.90
3005;DHT22;1512;51.486;6.610;2022-11-20T19:09:47;5.80;99.90
3005;DHT22;1512;51.486;6.610;2022-11-20T19:13:56;5.80;99.90
3005;DHT22;1512;51.486;6.610;2022-11-20T19:18:05;5.90;99.90
3005;DHT22;1512;51.486;6.610;2022-11-20T19:22:14;5.90;99.90
3005;DHT22;1512;51.486;6.610;2022-11-20T19:26:23;6.00;99.90
3005;DHT22;1512;51.486;6.610;2022-11-20T19:30:52;6.10;99.90
3005;DHT22;1512;51.486;6.610;2022-11-20T19:35:01;6.20;99.90
3005;DHT22;1512;51.486;6.610;2022-11-20T19:39:29;6.50;99.90
3005;DHT22;1512;51.486;6.610;2022-11-20T19:43:38;6.60;99.90
3005;DHT22;1512;51.486;6.610;2022-11-20T19:47:46;6.70;99.90
3005;DHT22;1512;51.486;6.610;2022-11-20T19:51:57;6.90;99.90
3005;DHT22;1512;51.486;6.610;2022-11-20T19:56:05;7.10;99.90
3005;DHT22;1512;51.486;6.610;2022-11-20T20:00:15;7.30;99.90
3005;DHT22;1512;51.486;6.610;2022-11-20T20:04:26;7.20;99.90
3005;DHT22;1512;51.486;6.610;2022-11-20T20:08:36;7.30;99.90
3005;DHT22;1512;51.486;6.610;2022-11-20T20:12:44;7.20;99.90
3005;DHT22;1512;51.486;6.610;2022-11-20T20:16:53;7.20;99.90
3005;DHT22;1512;51.486;6.610;2022-11-20T20:21:06;7.20;99.90
3005;DHT22;1512;51.486;6.610;2022-11-20T20:25:15;7.20;99.90
3005;DHT22;1512;51.486;6.610;2022-11-20T20:29:24;7.20;99.90
3005;DHT22;1512;51.486;6.610;2022-11-20T20:33:34;7.10;99.90
3005;DHT22;1512;51.486;6.610;2022-11-20T20:37:43;7.00;99.90
3005;DHT22;1512;51.486;6.610;2022-11-20T20:41:52;6.90;99.90
3005;DHT22;1512;51.486;6.610;2022-11-20T20:46:00;6.90;99.90
3005;DHT22;1512;51.486;6.610;2022-11-20T20:50:10;6.80;99.90
3005;DHT22;1512;51.486;6.610;2022-11-20T20:54:19;6.70;99.90
3005;DHT22;1512;51.486;6.610;2022-11-20T20:58:29;6.60;99.90
3005;DHT22;1512;51.486;6.610;2022-11-20T21:02:38;6.60;99.90
3005;DHT22;1512;51.486;6.610;2022-11-20T21:06:47;6.50;99.90
3005;DHT22;1512;51.486;6.610;2022-11-20T21:11:04;6.30;99.90
3005;DHT22;1512;51.486;6.610;2022-11-20T21:15:13;6.20;99.90
3005;DHT22;1512;51.486;6.610;2022-11-20T21:19:21;6.00;99.90
3005;DHT22;1512;51.486;6.610;2022-11-20T21:23:30;5.90;99.90
3005;DHT22;1512;51.486;6.610;2022-11-20T21:27:39;5.80;99.90
3005;DHT22;1512;51.486;6.610;2022-11-20T21:31:48;5.80;99.90
3005;DHT22;1512;51.486;6.610;2022-11-20T21:35:57;5.70;99.90
3005;DHT22;1512;51.486;6.610;2022-11-20T21:40:08;5.50;99.90
3005;DHT22;1512;51.486;6.610;2022-11-20T21:44:19;5.50;99.90
3005;DHT22;1512;51.486;6.610;2022-11-20T21:48:30;5.40;99.90
3005;DHT22;1512;51.486;6.610;2022-11-20T21:52:59;5.30;99.90
3005;DHT22;1512;51.486;6.610;2022-11-20T21:57:07;5.20;99.90
3005;DHT22;1512;51.486;6.610;2022-11-20T22:01:24;5.10;99.90
3005;DHT22;1512;51.486;6.610;2022-11-20T22:05:33;5.00;99.90
3005;DHT22;1512;51.486;6.610;2022-11-20T22:09:42;4.90;99.90
3005;DHT22;1512;51.486;6.610;2022-11-20T22:13:52;4.90;99.90
3005;DHT22;1512;51.486;6.610;2022-11-20T22:18:18;4.80;99.90
3005;DHT22;1512;51.486;6.610;2022-11-20T22:22:29;4.80;99.90
3005;DHT22;1512;51.486;6.610;2022-11-20T22:26:37;4.80;99.90
3005;DHT22;1512;51.486;6.610;2022-11-20T22:30:47;4.70;99.90
3005;DHT22;1512;51.486;6.610;2022-11-20T22:34:55;4.70;99.90
3005;DHT22;1512;51.486;6.610;2022-11-20T22:39:23;4.60;99.90
3005;DHT22;1512;51.486;6.610;2022-11-20T22:43:33;4.60;99.90
3005;DHT22;1512;51.486;6.610;2022-11-20T22:47:41;4.60;99.90
3005;DHT22;1512;51.486;6.610;2022-11-20T22:51:50;4.50;99.90
3005;DHT22;1512;51.486;6.610;2022-11-20T22:55:59;4.40;99.90
3005;DHT22;1512;51.486;6.610;2022-11-20T23:00:09;4.40;99.90
3005;DHT22;1512;51.486;6.610;2022-11-20T23:04:18;4.40;99.90
3005;DHT22;1512;51.486;6.610;2022-11-20T23:08:27;4.40;99.90
3005;DHT22;1512;51.486;6.610;2022-11-20T23:12:35;4.30;99.90
3005;DHT22;1512;51.486;6.610;2022-11-20T23:16:44;4.30;99.90
3005;DHT22;1512;51.486;6.610;2022-11-20T23:20:53;4.20;99.90
3005;DHT22;1512;51.486;6.610;2022-11-20T23:25:01;4.20;99.90
3005;DHT22;1512;51.486;6.610;2022-11-20T23:29:10;4.10;99.90
3005;DHT22;1512;51.486;6.610;2022-11-20T23:33:19;4.10;99.90
3005;DHT22;1512;51.486;6.610;2022-11-20T23:37:28;4.10;99.90
3005;DHT22;1512;51.486;6.610;2022-11-20T23:41:36;4.10;99.90
3005;DHT22;1512;51.486;6.610;2022-11-20T23:45:50;4.10;99.90
3005;DHT22;1512;51.486;6.610;2022-11-20T23:49:59;4.20;99.90
3005;DHT22;1512;51.486;6.610;2022-11-20T23:54:07;4.10;99.90
3005;DHT22;1512;51.486;6.610;2022-11-20T23:58:17;4.10;99.90
